createdAt,value
2022-10-05T00:01:28.495Z,100996.44
2022-10-05T00:04:03.304Z,100999.06
2022-10-05T00:06:31.460Z,100970.25
2022-10-05T00:09:01.922Z,100994.00
2022-10-05T00:11:31.179Z,100994.94
2022-10-05T00:13:59.251Z,100959.38
2022-10-05T00:16:27.174Z,100938.22
2022-10-05T00:18:55.235Z,100962.94
2022-10-05T00:21:24.958Z,100936.81
2022-10-05T00:23:53.800Z,100667.38
2022-10-05T00:26:24.054Z,100994.31
2022-10-05T00:28:54.549Z,100992.59
2022-10-05T00:31:24.660Z,100962.94
2022-10-05T00:33:54.856Z,100964.69
2022-10-05T00:36:23.022Z,100983.34
2022-10-05T00:38:51.098Z,100589.44
2022-10-05T00:41:24.990Z,100960.28
2022-10-05T00:44:23.513Z,100955.22
2022-10-05T00:46:57.757Z,100956.13
2022-10-05T00:49:40.514Z,100936.69
2022-10-05T00:52:22.884Z,100868.38
2022-10-05T00:55:00.744Z,100884.28
2022-10-05T00:57:41.799Z,100950.34
2022-10-05T01:00:14.483Z,100559.25
2022-10-05T01:02:53.990Z,100943.53
2022-10-05T01:05:39.736Z,100924.13
2022-10-05T01:08:18.203Z,100688.41
2022-10-05T01:10:54.881Z,100932.72
2022-10-05T01:13:32.286Z,100952.19
2022-10-05T01:16:13.232Z,100947.09
2022-10-05T01:18:51.248Z,100944.53
2022-10-05T01:21:21.942Z,100683.34
2022-10-05T01:24:22.448Z,100953.09
2022-10-05T01:27:16.625Z,100850.00
2022-10-05T01:29:50.676Z,100954.00
2022-10-05T01:32:29.000Z,100953.31
2022-10-05T01:35:09.037Z,100895.72
2022-10-05T01:37:47.646Z,100787.59
2022-10-05T01:40:26.999Z,100619.41
2022-10-05T01:43:05.629Z,100962.59
2022-10-05T01:45:46.988Z,100956.63
2022-10-05T01:48:22.005Z,100697.97
2022-10-05T01:51:01.618Z,100939.06
2022-10-05T01:53:43.609Z,100961.78
2022-10-05T01:56:20.518Z,100793.44
2022-10-05T01:58:59.899Z,100934.78
2022-10-05T02:01:37.607Z,100964.34
2022-10-05T02:04:13.396Z,100887.41
2022-10-05T02:06:51.156Z,100963.56
2022-10-05T02:09:24.048Z,100958.44
2022-10-05T02:11:57.791Z,100915.34
2022-10-05T02:14:30.358Z,100937.88
2022-10-05T02:17:05.777Z,100933.59
2022-10-05T02:19:38.035Z,100898.03
2022-10-05T02:22:11.519Z,100694.50
2022-10-05T02:24:47.349Z,100906.28
2022-10-05T02:27:19.697Z,100625.81
2022-10-05T02:29:49.751Z,100628.94
2022-10-05T02:32:24.215Z,100493.00
2022-10-05T02:34:52.246Z,100921.56
2022-10-05T02:37:35.308Z,100919.50
2022-10-05T02:40:17.724Z,100595.19
2022-10-05T02:42:56.120Z,100684.44
2022-10-05T02:45:33.424Z,100438.16
2022-10-05T02:48:15.409Z,100917.69
2022-10-05T02:50:51.047Z,100872.75
2022-10-05T02:53:25.557Z,100907.63
2022-10-05T02:56:06.619Z,100872.72
2022-10-05T02:58:45.885Z,100898.72
2022-10-05T03:01:23.692Z,100881.78
2022-10-05T03:04:02.510Z,100872.63
2022-10-05T03:06:36.122Z,100902.09
2022-10-05T03:09:07.033Z,100818.66
2022-10-05T03:11:44.536Z,100800.63
2022-10-05T03:14:19.757Z,100902.13
2022-10-05T03:17:00.457Z,100820.06
2022-10-05T03:19:50.309Z,100902.97
2022-10-05T03:22:27.223Z,100896.97
2022-10-05T03:25:19.320Z,100896.84
2022-10-05T03:27:56.622Z,100899.31
2022-10-05T03:30:26.660Z,100834.94
2022-10-05T03:33:03.506Z,100763.91
2022-10-05T03:35:46.165Z,100814.50
2022-10-05T03:38:19.677Z,100661.88
2022-10-05T03:40:55.302Z,100804.38
2022-10-05T03:43:41.588Z,100897.94
2022-10-05T03:46:14.799Z,100528.22
2022-10-05T03:48:53.550Z,100897.09
2022-10-05T03:51:29.724Z,100898.84
2022-10-05T03:54:03.930Z,100896.34
2022-10-05T03:56:37.326Z,100753.66
2022-10-05T03:59:14.510Z,100854.09
2022-10-05T04:01:49.605Z,100900.59
2022-10-05T04:04:24.068Z,100841.44
2022-10-05T04:06:55.989Z,100648.81
2022-10-05T04:09:29.253Z,100862.78
2022-10-05T04:12:07.013Z,100900.50
2022-10-05T04:14:40.388Z,100448.88
2022-10-05T04:17:13.488Z,100653.16
2022-10-05T04:19:46.347Z,100897.16
2022-10-05T04:22:22.995Z,100896.34
2022-10-05T04:24:56.798Z,100826.94
2022-10-05T04:27:32.042Z,100794.84
2022-10-05T04:30:08.146Z,100851.63
2022-10-05T04:32:39.996Z,100898.25
2022-10-05T04:35:38.511Z,100800.97
2022-10-05T04:38:22.364Z,100876.19
2022-10-05T04:41:04.827Z,100824.63
2022-10-05T04:43:46.643Z,100820.28
2022-10-05T04:46:24.819Z,100664.22
2022-10-05T04:49:25.564Z,100865.78
2022-10-05T04:52:05.485Z,100866.56
2022-10-05T04:54:49.772Z,100841.97
2022-10-05T04:57:25.333Z,100869.06
2022-10-05T05:00:05.855Z,100853.03
2022-10-05T05:02:48.782Z,100803.16
2022-10-05T05:05:28.912Z,100846.97
2022-10-05T05:08:12.852Z,100800.66
2022-10-05T05:10:59.845Z,100827.53
2022-10-05T05:13:58.293Z,100862.84
2022-10-05T05:16:34.856Z,100871.34
2022-10-05T05:19:19.186Z,100873.03
2022-10-05T05:21:57.362Z,100870.75
2022-10-05T05:24:35.429Z,100780.28
2022-10-05T05:27:30.533Z,100777.88
2022-10-05T05:30:04.163Z,100701.41
2022-10-05T05:32:45.673Z,100809.69
2022-10-05T05:35:35.935Z,100860.88
2022-10-05T05:38:17.329Z,100506.53
2022-10-05T05:40:51.467Z,100704.47
2022-10-05T05:43:26.225Z,100877.59
2022-10-05T05:46:00.729Z,100747.59
2022-10-05T05:48:38.959Z,100883.47
2022-10-05T05:51:11.703Z,100818.44
2022-10-05T05:53:43.962Z,100878.94
2022-10-05T05:56:14.738Z,100881.38
2022-10-05T05:58:49.723Z,100883.66
2022-10-05T06:01:33.306Z,100675.81
2022-10-05T06:04:11.849Z,100709.25
2022-10-05T06:06:45.998Z,100892.97
2022-10-05T06:09:20.469Z,100907.88
2022-10-05T06:12:08.601Z,100805.94
2022-10-05T06:14:43.914Z,100901.00
2022-10-05T06:17:18.900Z,100794.75
2022-10-05T06:19:49.868Z,100881.47
2022-10-05T06:22:27.556Z,100893.78
2022-10-05T06:25:07.186Z,100665.81
2022-10-05T06:27:37.691Z,100486.75
2022-10-05T06:30:13.498Z,100901.66
2022-10-05T06:33:09.157Z,100771.81
2022-10-05T06:35:53.515Z,100780.72
2022-10-05T06:38:39.767Z,100542.88
2022-10-05T06:41:20.734Z,100837.13
2022-10-05T06:43:57.995Z,100906.09
2022-10-05T06:46:49.809Z,100898.91
2022-10-05T06:49:34.099Z,100403.69
2022-10-05T06:52:27.780Z,100899.88
2022-10-05T06:55:13.276Z,100571.13
2022-10-05T06:57:54.474Z,100710.91
2022-10-05T07:00:24.907Z,100699.06
2022-10-05T07:03:04.673Z,100609.13
2022-10-05T07:05:53.429Z,100439.34
2022-10-05T07:08:36.333Z,100850.50
2022-10-05T07:11:21.579Z,100401.09
2022-10-05T07:14:12.075Z,100704.31
2022-10-05T07:16:51.708Z,100860.69
2022-10-05T07:19:35.767Z,100891.16
2022-10-05T07:22:23.133Z,100682.66
2022-10-05T07:25:00.251Z,100846.22
2022-10-05T07:27:31.723Z,100898.47
2022-10-05T07:30:04.815Z,100879.81
2022-10-05T07:32:40.015Z,100891.31
2022-10-05T07:35:32.504Z,100791.88
2022-10-05T07:38:08.644Z,100890.75
2022-10-05T07:40:42.911Z,100401.31
2022-10-05T07:43:35.901Z,100899.31
2022-10-05T07:46:23.159Z,100887.59
2022-10-05T07:49:03.731Z,100820.00
2022-10-05T07:51:40.932Z,100875.03
2022-10-05T07:54:22.339Z,100780.28
2022-10-05T07:56:55.996Z,100892.38
2022-10-05T07:59:32.400Z,100884.72
2022-10-05T08:02:13.677Z,100882.16
2022-10-05T08:04:53.349Z,100865.66
2022-10-05T08:09:56.050Z,100680.16
2022-10-05T08:12:31.891Z,100875.78
2022-10-05T08:15:04.235Z,100881.34
2022-10-05T08:17:47.966Z,100808.56
2022-10-05T08:20:40.631Z,100884.63
2022-10-05T08:23:26.774Z,100493.00
2022-10-05T08:26:17.364Z,100879.13
2022-10-05T08:28:53.095Z,100877.53
2022-10-05T08:31:26.705Z,100872.16
2022-10-05T08:34:03.802Z,100731.31
2022-10-05T08:36:54.107Z,100876.44
2022-10-05T08:39:27.132Z,100815.59
2022-10-05T08:42:27.213Z,100851.56
2022-10-05T08:45:26.987Z,100749.03
2022-10-05T08:48:11.334Z,100868.03
2022-10-05T08:51:03.361Z,100745.97
2022-10-05T08:54:07.428Z,100868.59
2022-10-05T08:56:43.299Z,100723.19
2022-10-05T08:59:46.927Z,100806.97
2022-10-05T09:02:29.167Z,100863.63
2022-10-05T09:05:14.754Z,100734.66
2022-10-05T09:08:09.379Z,100856.25
2022-10-05T09:11:09.639Z,100858.63
2022-10-05T09:14:07.273Z,100839.47
2022-10-05T09:17:11.111Z,100846.31
2022-10-05T09:20:10.999Z,100842.25
2022-10-05T09:22:59.098Z,100840.13
2022-10-05T09:25:44.169Z,100839.66
2022-10-05T09:28:24.887Z,100838.16
2022-10-05T09:31:20.436Z,100812.91
2022-10-05T09:34:20.152Z,100838.66
2022-10-05T09:37:26.620Z,100830.00
2022-10-05T09:40:42.354Z,100834.44
2022-10-05T09:43:44.316Z,100826.00
2022-10-05T09:46:39.953Z,100822.22
2022-10-05T09:49:29.351Z,100784.63
2022-10-05T09:52:13.080Z,100809.09
2022-10-05T09:55:31.017Z,100722.16
2022-10-05T09:58:20.255Z,100712.75
2022-10-05T10:01:15.449Z,100791.66
2022-10-05T10:04:24.690Z,100790.28
2022-10-05T10:07:22.956Z,100788.38
2022-10-05T10:10:18.765Z,100751.66
2022-10-05T10:13:15.281Z,100778.38
2022-10-05T10:16:04.740Z,100774.50
2022-10-05T10:18:46.803Z,100777.75
2022-10-05T10:21:34.184Z,100771.69
2022-10-05T10:24:17.099Z,100745.66
2022-10-05T10:27:20.580Z,100767.47
2022-10-05T10:30:31.043Z,100690.69
2022-10-05T10:33:25.142Z,100736.44
2022-10-05T10:36:03.020Z,100753.53
2022-10-05T10:38:40.988Z,100753.25
2022-10-05T10:41:28.232Z,100751.44
2022-10-05T10:44:39.176Z,100757.16
2022-10-05T10:47:31.651Z,100714.13
2022-10-05T10:50:55.732Z,100754.38
2022-10-05T10:53:52.579Z,100740.63
2022-10-05T10:56:54.124Z,100744.09
2022-10-05T11:00:01.240Z,100751.91
2022-10-05T11:02:52.299Z,100752.63
2022-10-05T11:05:48.808Z,100743.41
2022-10-05T11:08:42.612Z,100736.50
2022-10-05T11:11:28.420Z,100736.53
2022-10-05T11:14:27.341Z,100734.91
2022-10-05T11:17:15.451Z,100687.47
2022-10-05T11:20:03.472Z,100731.69
2022-10-05T11:22:51.605Z,100725.84
2022-10-05T11:25:57.999Z,100717.75
2022-10-05T11:28:43.909Z,100719.91
2022-10-05T11:32:02.756Z,100710.78
2022-10-05T11:34:46.784Z,100722.38
2022-10-05T11:37:36.383Z,100712.97
2022-10-05T11:40:26.630Z,100707.03
2022-10-05T11:43:14.068Z,100700.19
2022-10-05T11:46:01.877Z,100696.50
2022-10-05T11:48:46.608Z,100691.69
2022-10-05T11:51:30.533Z,100694.97
2022-10-05T11:54:17.413Z,100686.06
2022-10-05T11:56:53.824Z,100677.78
2022-10-05T11:59:30.062Z,100677.50
2022-10-05T12:02:08.600Z,100602.69
2022-10-05T12:04:52.987Z,100672.88
2022-10-05T12:07:33.067Z,100667.88
2022-10-05T12:10:21.235Z,100662.13
2022-10-05T12:13:09.046Z,100652.69
2022-10-05T12:15:48.381Z,100503.06
2022-10-05T12:18:23.800Z,100614.09
2022-10-05T12:20:57.791Z,100646.41
2022-10-05T12:23:33.487Z,100632.38
2022-10-05T12:26:05.907Z,100598.19
2022-10-05T12:28:39.195Z,100636.50
2022-10-05T12:31:19.448Z,100633.94
2022-10-05T12:33:55.373Z,100610.81
2022-10-05T12:36:46.271Z,100645.41
2022-10-05T12:39:27.253Z,100480.38
2022-10-05T12:42:04.447Z,100652.44
2022-10-05T12:44:49.050Z,100639.28
2022-10-05T12:47:25.399Z,100497.91
2022-10-05T12:50:11.495Z,100473.97
2022-10-05T12:52:51.601Z,100646.75
2022-10-05T12:55:26.068Z,100320.25
2022-10-05T13:07:42.198Z,100605.50
2022-10-05T13:10:25.057Z,100565.31
2022-10-05T13:13:03.233Z,100488.94
2022-10-05T13:15:38.583Z,100623.59
2022-10-05T13:18:18.858Z,100378.81
2022-10-05T13:20:55.598Z,100571.72
2022-10-05T13:23:32.315Z,100595.25
2022-10-05T13:26:08.081Z,100617.16
2022-10-05T13:28:42.981Z,100538.22
2022-10-05T13:31:16.785Z,100619.25
2022-10-05T13:34:04.986Z,100570.72
2022-10-05T13:36:43.064Z,100354.84
2022-10-05T13:39:23.017Z,100610.31
2022-10-05T13:42:00.684Z,100611.78
2022-10-05T13:44:38.116Z,100600.03
2022-10-05T13:47:13.977Z,100422.03
2022-10-05T13:49:50.309Z,100589.25
2022-10-05T13:52:29.051Z,100561.22
2022-10-05T13:55:02.964Z,100588.69
2022-10-05T13:57:46.453Z,100587.50
2022-10-05T14:00:19.462Z,100568.19
2022-10-05T14:02:51.843Z,100242.22
2022-10-05T14:05:22.953Z,100570.59
2022-10-05T14:07:54.190Z,100565.03
2022-10-05T14:10:32.723Z,100553.22
2022-10-05T14:13:03.168Z,100558.03
2022-10-05T14:15:38.469Z,100527.81
2022-10-05T14:18:24.451Z,100562.84
2022-10-05T14:21:04.305Z,100528.63
2022-10-05T14:23:32.853Z,100568.50
2022-10-05T14:26:04.160Z,100519.84
2022-10-05T14:28:39.127Z,100420.41
2022-10-05T14:31:14.954Z,100555.22
2022-10-05T14:33:43.194Z,100492.50
2022-10-05T14:36:17.275Z,100307.63
2022-10-05T14:38:54.208Z,100555.63
2022-10-05T14:41:24.830Z,100543.47
2022-10-05T14:43:58.799Z,100554.44
2022-10-05T14:46:29.549Z,100555.63
2022-10-05T14:49:21.518Z,100542.75
2022-10-05T14:51:51.193Z,100507.50
2022-10-05T14:54:30.024Z,100492.53
2022-10-05T14:57:15.072Z,100530.59
2022-10-05T15:00:11.212Z,100565.13
2022-10-05T15:03:03.307Z,100569.66
2022-10-05T15:05:36.735Z,100508.59
2022-10-05T15:08:16.752Z,100556.69
2022-10-05T15:10:50.873Z,100558.59
2022-10-05T15:13:22.813Z,100376.56
2022-10-05T15:15:54.774Z,100499.66
2022-10-05T15:18:36.327Z,100307.22
2022-10-05T15:21:21.620Z,100538.38
2022-10-05T15:23:55.264Z,100578.72
2022-10-05T15:26:36.205Z,100573.59
2022-10-05T15:29:18.723Z,100300.50
2022-10-05T15:31:59.163Z,100378.56
2022-10-05T15:34:37.871Z,100370.56
2022-10-05T15:37:18.686Z,100212.59
2022-10-05T15:39:52.141Z,100286.69
2022-10-05T15:42:26.386Z,100390.94
2022-10-05T15:45:06.280Z,100357.00
2022-10-05T15:47:48.112Z,100488.91
2022-10-05T15:50:23.257Z,100409.84
2022-10-05T15:52:57.272Z,100605.25
2022-10-05T15:55:53.011Z,100361.28
2022-10-05T15:58:38.807Z,100603.59
2022-10-05T16:01:12.388Z,100576.91
2022-10-05T16:03:55.539Z,100600.00
2022-10-05T16:06:51.641Z,100604.06
2022-10-05T16:09:44.696Z,100605.44
2022-10-05T16:12:26.662Z,100607.22
2022-10-05T16:15:05.241Z,100590.84
2022-10-05T16:17:59.061Z,100610.81
2022-10-05T16:20:41.003Z,100606.72
2022-10-05T16:23:19.596Z,100604.28
2022-10-05T16:25:59.394Z,100606.97
2022-10-05T16:28:39.171Z,100637.28
2022-10-05T16:31:18.039Z,100645.06
2022-10-05T16:33:59.336Z,100650.09
2022-10-05T16:36:52.244Z,100591.88
2022-10-05T16:39:35.933Z,100644.19
2022-10-05T16:42:12.068Z,100665.41
2022-10-05T16:44:49.042Z,100635.41
2022-10-05T16:47:43.456Z,100663.84
2022-10-05T16:50:21.022Z,100634.69
2022-10-05T16:52:56.426Z,100533.44
2022-10-05T16:55:32.502Z,100674.94
2022-10-05T16:58:04.088Z,100422.84
2022-10-05T17:00:40.718Z,100688.63
2022-10-05T17:03:24.981Z,100684.44
2022-10-05T17:06:05.230Z,100679.66
2022-10-05T17:08:57.761Z,100679.22
2022-10-05T17:11:38.584Z,100664.28
2022-10-05T17:14:29.487Z,100641.47
2022-10-05T17:17:17.217Z,100689.03
2022-10-05T17:19:53.089Z,100705.31
2022-10-05T17:22:27.356Z,100696.84
2022-10-05T17:25:12.168Z,100703.19
2022-10-05T17:27:52.381Z,100675.09
2022-10-05T17:30:38.511Z,100698.31
2022-10-05T17:33:25.714Z,100707.06
2022-10-05T17:35:58.256Z,100709.78
2022-10-05T17:38:47.450Z,100710.81
2022-10-05T17:41:22.579Z,100714.56
2022-10-05T17:44:20.617Z,100730.53
2022-10-05T17:46:50.328Z,100724.03
2022-10-05T17:49:37.412Z,100714.59
2022-10-05T17:52:39.351Z,100739.06
2022-10-05T17:55:30.014Z,100748.03
2022-10-05T17:58:01.992Z,100744.75
2022-10-05T18:00:41.962Z,100758.13
2022-10-05T18:03:40.859Z,100759.97
2022-10-05T18:06:33.202Z,100680.91
2022-10-05T18:09:30.900Z,100687.50
2022-10-05T18:12:26.094Z,100750.19
2022-10-05T18:15:00.204Z,100768.63
2022-10-05T18:17:42.025Z,100785.13
2022-10-05T18:20:27.722Z,100787.72
2022-10-05T18:23:30.138Z,100793.59
2022-10-05T18:26:06.077Z,100797.69
2022-10-05T18:28:52.778Z,100795.00
2022-10-05T18:31:31.906Z,100796.94
2022-10-05T18:34:18.812Z,100782.13
2022-10-05T18:37:09.830Z,100745.94
2022-10-05T18:39:58.018Z,100809.44
2022-10-05T18:42:34.660Z,100797.28
2022-10-05T18:45:17.403Z,100776.72
2022-10-05T18:47:55.507Z,100825.72
2022-10-05T18:50:29.658Z,100827.34
2022-10-05T18:53:16.547Z,100824.38
2022-10-05T18:55:47.511Z,100833.25
2022-10-05T18:58:22.103Z,100831.84
2022-10-05T19:01:26.802Z,100835.44
2022-10-05T19:04:09.286Z,100845.69
2022-10-05T19:06:45.297Z,100841.56
2022-10-05T19:09:25.115Z,100827.06
2022-10-05T19:12:00.742Z,100853.94
2022-10-05T19:14:35.033Z,100856.53
2022-10-05T19:17:23.898Z,100854.88
2022-10-05T19:20:04.246Z,100848.59
2022-10-05T19:22:50.871Z,100857.28
2022-10-05T19:25:30.052Z,100854.75
2022-10-05T19:28:08.567Z,100824.84
2022-10-05T19:30:50.731Z,100843.06
2022-10-05T19:33:29.420Z,100836.97
2022-10-05T19:36:12.460Z,100797.66
2022-10-05T19:38:51.761Z,100774.06
2022-10-05T19:41:23.961Z,100822.03
2022-10-05T19:44:06.947Z,100855.78
2022-10-05T19:46:45.823Z,100752.22
2022-10-05T19:49:13.723Z,100863.81
2022-10-05T19:51:51.418Z,100878.13
2022-10-05T19:54:25.787Z,100864.09
2022-10-05T19:56:55.092Z,100880.19
2022-10-05T19:59:26.766Z,100799.75
2022-10-05T20:01:59.111Z,100886.22
2022-10-05T20:04:36.869Z,100825.66
2022-10-05T20:07:06.208Z,100893.50
2022-10-05T20:09:53.488Z,100891.84
2022-10-05T20:12:22.841Z,100898.94
2022-10-05T20:15:25.057Z,100911.34
2022-10-05T20:18:10.496Z,100915.00
2022-10-05T20:20:42.303Z,100895.53
2022-10-05T20:23:27.877Z,100881.16
2022-10-05T20:26:13.437Z,100902.59
2022-10-05T20:28:41.559Z,100896.09
2022-10-05T20:31:09.699Z,100856.94
2022-10-05T20:33:38.773Z,100920.13
2022-10-05T20:36:08.567Z,100923.09
2022-10-05T20:38:41.008Z,100920.09
2022-10-05T20:41:09.332Z,100919.63
2022-10-05T20:43:39.141Z,100918.78
2022-10-05T20:46:07.554Z,100935.53
2022-10-05T20:48:35.975Z,100919.53
2022-10-05T20:51:03.772Z,100883.69
2022-10-05T20:53:31.572Z,100933.78
2022-10-05T20:56:04.376Z,100826.66
2022-10-05T20:58:32.149Z,100931.53
2022-10-05T21:01:19.707Z,100855.75
2022-10-05T21:03:47.892Z,100945.47
2022-10-05T21:06:15.675Z,100889.56
2022-10-05T21:08:44.054Z,100890.78
2022-10-05T21:11:13.622Z,100923.00
2022-10-05T21:13:44.642Z,100946.72
2022-10-05T21:16:13.354Z,100958.31
2022-10-05T21:18:42.285Z,100921.25
2022-10-05T21:21:10.111Z,100943.63
2022-10-05T21:23:37.965Z,100974.09
2022-10-05T21:26:07.807Z,100951.66
2022-10-05T21:28:36.988Z,100980.47
2022-10-05T21:31:04.962Z,100945.78
2022-10-05T21:33:32.739Z,100885.19
2022-10-05T21:36:00.591Z,100975.06
2022-10-05T21:38:29.740Z,100954.00
2022-10-05T21:40:57.690Z,100852.97
2022-10-05T21:43:25.997Z,100955.44
2022-10-05T21:45:56.765Z,100981.91
2022-10-05T21:48:26.668Z,100948.09
2022-10-05T21:50:54.831Z,100976.41
2022-10-05T21:53:27.992Z,100985.44
2022-10-05T21:55:58.588Z,100987.22
2022-10-05T21:58:29.601Z,100973.78
2022-10-05T22:00:59.174Z,101000.72
2022-10-05T22:03:27.494Z,100990.19
2022-10-05T22:05:55.425Z,100966.78
2022-10-05T22:08:25.932Z,100986.19
2022-10-05T22:10:54.593Z,100997.06
2022-10-05T22:13:24.041Z,100943.41
2022-10-05T22:15:52.197Z,100978.81
2022-10-05T22:18:21.624Z,101005.75
2022-10-05T22:20:49.558Z,101010.13
2022-10-05T22:23:17.466Z,101024.16
2022-10-05T22:25:45.876Z,101024.03
2022-10-05T22:28:16.998Z,101034.97
2022-10-05T22:30:46.001Z,100992.72
2022-10-05T22:33:14.036Z,101030.16
2022-10-05T22:35:43.447Z,101034.38
2022-10-05T22:38:11.287Z,100947.91
2022-10-05T22:40:39.331Z,101035.94
2022-10-05T22:43:07.527Z,101009.38
2022-10-05T22:45:35.953Z,101056.56
2022-10-05T22:48:04.139Z,100978.75
2022-10-05T22:50:32.237Z,101060.06
2022-10-05T22:53:03.119Z,101066.00
2022-10-05T22:55:30.979Z,101075.53
2022-10-05T22:57:58.795Z,100984.47
2022-10-05T23:00:40.508Z,101102.31
2022-10-05T23:03:17.211Z,101150.31
2022-10-05T23:05:45.267Z,101090.50
2022-10-05T23:08:14.431Z,101183.41
2022-10-05T23:10:42.553Z,101063.31
2022-10-05T23:13:10.376Z,101147.16
2022-10-05T23:15:38.293Z,101144.72
2022-10-05T23:18:06.183Z,100944.94
2022-10-05T23:20:34.046Z,101183.41
2022-10-05T23:23:01.915Z,101188.16
2022-10-05T23:25:31.353Z,101189.16
2022-10-05T23:27:59.207Z,101200.28
2022-10-05T23:30:27.203Z,101173.81
2022-10-05T23:32:55.328Z,101121.13
2022-10-05T23:35:23.224Z,101125.13
2022-10-05T23:37:51.106Z,101204.72
2022-10-05T23:40:19.112Z,101212.88
2022-10-05T23:42:48.425Z,101105.31
2022-10-05T23:45:17.598Z,101113.97
2022-10-05T23:47:47.152Z,101140.38
2022-10-05T23:50:15.116Z,101208.00
2022-10-05T23:52:43.044Z,101225.47
2022-10-05T23:55:11.585Z,101184.38
2022-10-05T23:57:40.384Z,101177.78
